Terminal Aerodrome Forecast
Issued by NWS

Home | Current Version | Previous Version | Text Only | Print | Product List | Glossary On
Versions: 1 2 3 4 5 6 7 8 9 10 11 12 13 14 15 16 17 18 19 20
000
FTUS46 KMTR 222320
TAFMRY
TAF
KMRY 222320Z 2300/2324 28010KT P6SM SKC
     FM230400 23005KT P6SM SCT010
     FM230600 24003KT P6SM OVC005
     FM231200 VRB03KT 2SM BR OVC004
     FM231600 VRB03KT P6SM BKN006
     FM231700 29005KT P6SM SCT010
     FM231900 29008KT P6SM SKC=

USA.gov is the U.S. government's official web portal to all federal, state and local government web resources and services.